createdAt,value
2023-02-09T00:01:25.583Z,56.27
2023-02-09T00:03:58.839Z,56.27
2023-02-09T00:06:30.399Z,56.41
2023-02-09T00:09:02.637Z,56.39
2023-02-09T00:11:47.014Z,56.14
2023-02-09T00:14:22.106Z,55.73
2023-02-09T00:16:53.559Z,55.48
2023-02-09T00:19:26.209Z,55.39
2023-02-09T00:21:56.893Z,55.33
2023-02-09T00:24:27.828Z,55.17
2023-02-09T00:26:58.202Z,54.93
2023-02-09T00:29:28.474Z,53.90
2023-02-09T00:31:58.865Z,53.96
2023-02-09T00:34:31.859Z,54.03
2023-02-09T00:37:02.189Z,53.26
2023-02-09T00:39:33.472Z,53.08
2023-02-09T00:42:11.280Z,52.83
2023-02-09T00:44:43.542Z,52.92
2023-02-09T00:47:13.923Z,53.02
2023-02-09T00:49:46.938Z,53.16
2023-02-09T00:52:17.198Z,52.94
2023-02-09T00:54:47.869Z,52.96
2023-02-09T00:57:20.113Z,53.15
2023-02-09T00:59:50.521Z,53.26
2023-02-09T01:02:20.849Z,53.50
2023-02-09T01:04:54.029Z,53.03
2023-02-09T01:07:24.368Z,53.39
2023-02-09T01:09:56.041Z,53.65
2023-02-09T01:12:26.380Z,54.01
2023-02-09T01:14:56.740Z,53.84
2023-02-09T01:17:28.160Z,53.81
2023-02-09T01:20:01.418Z,53.84
2023-02-09T01:22:31.742Z,54.07
2023-02-09T01:25:02.047Z,54.17
2023-02-09T01:27:32.457Z,54.68
2023-02-09T01:30:03.384Z,55.92
2023-02-09T01:32:33.772Z,55.90
2023-02-09T01:35:07.077Z,54.91
2023-02-09T01:37:38.506Z,54.85
2023-02-09T01:40:11.462Z,55.14
2023-02-09T01:42:42.262Z,55.46
2023-02-09T01:45:28.523Z,55.63
2023-02-09T01:48:04.913Z,56.04
2023-02-09T01:50:41.988Z,56.17
2023-02-09T01:53:13.767Z,55.98
2023-02-09T01:55:49.891Z,56.16
2023-02-09T01:58:23.557Z,56.28
2023-02-09T02:00:54.192Z,56.02
2023-02-09T02:03:29.127Z,56.46
2023-02-09T02:06:07.556Z,55.99
2023-02-09T02:08:43.110Z,55.90
2023-02-09T02:11:16.133Z,55.91
2023-02-09T02:13:46.377Z,56.11
2023-02-09T02:16:46.542Z,55.85
2023-02-09T02:20:11.158Z,56.04
2023-02-09T02:23:05.742Z,55.96
2023-02-09T02:26:18.385Z,56.13
2023-02-09T02:29:10.937Z,55.90
2023-02-09T02:32:23.776Z,56.24
2023-02-09T02:35:02.063Z,56.61
2023-02-09T02:37:48.303Z,56.60
2023-02-09T02:40:32.478Z,56.36
2023-02-09T02:43:12.203Z,56.00
2023-02-09T02:45:47.130Z,56.08
2023-02-09T02:48:32.303Z,56.45
2023-02-09T02:51:08.633Z,56.44
2023-02-09T02:53:44.118Z,56.93
2023-02-09T02:56:19.544Z,57.07
2023-02-09T02:58:52.310Z,56.64
2023-02-09T03:01:28.049Z,56.82
2023-02-09T03:04:03.064Z,56.48
2023-02-09T03:06:34.991Z,56.57
2023-02-09T03:09:05.440Z,56.51
2023-02-09T03:11:40.693Z,56.70
2023-02-09T03:14:42.929Z,56.65
2023-02-09T03:17:25.573Z,57.19
2023-02-09T03:20:08.241Z,57.31
2023-02-09T03:22:42.965Z,56.95
2023-02-09T03:25:19.100Z,57.51
2023-02-09T03:27:56.814Z,56.91
2023-02-09T03:30:28.480Z,56.76
2023-02-09T03:32:59.216Z,56.73
2023-02-09T03:35:41.382Z,56.38
2023-02-09T03:38:11.744Z,56.45
2023-02-09T03:40:42.114Z,56.79
2023-02-09T03:43:13.089Z,56.74
2023-02-09T03:45:43.861Z,57.07
2023-02-09T03:48:14.484Z,56.68
2023-02-09T03:50:47.678Z,56.76
2023-02-09T03:53:17.987Z,56.42
2023-02-09T03:55:49.011Z,56.47
2023-02-09T03:58:19.588Z,56.73
2023-02-09T04:00:50.260Z,56.72
2023-02-09T04:03:20.672Z,57.27
2023-02-09T04:05:53.565Z,57.16
2023-02-09T04:08:23.887Z,57.09
2023-02-09T04:10:54.155Z,56.98
2023-02-09T04:13:24.489Z,56.29
2023-02-09T04:15:55.508Z,56.20
2023-02-09T04:18:25.910Z,56.32
2023-02-09T04:20:58.806Z,56.16
2023-02-09T04:23:29.140Z,56.58
2023-02-09T04:25:59.526Z,56.50
2023-02-09T04:28:29.854Z,56.09
2023-02-09T04:31:00.400Z,55.93
2023-02-09T04:33:30.811Z,56.35
2023-02-09T04:36:03.810Z,56.38
2023-02-09T04:38:34.574Z,56.69
2023-02-09T04:41:06.831Z,57.45
2023-02-09T04:43:37.321Z,56.92
2023-02-09T04:46:08.096Z,56.83
2023-02-09T04:48:38.592Z,56.75
2023-02-09T04:51:12.159Z,56.89
2023-02-09T04:53:42.646Z,57.06
2023-02-09T04:56:17.802Z,56.95
2023-02-09T04:59:00.817Z,57.23
2023-02-09T05:01:32.683Z,57.13
2023-02-09T05:04:03.083Z,57.08
2023-02-09T05:06:36.032Z,57.22
2023-02-09T05:09:06.369Z,57.57
2023-02-09T05:11:37.003Z,57.71
2023-02-09T05:14:07.952Z,57.89
2023-02-09T05:16:39.362Z,58.38
2023-02-09T05:19:09.918Z,58.63
2023-02-09T05:21:43.065Z,58.78
2023-02-09T05:24:13.556Z,58.91
2023-02-09T05:26:43.954Z,58.77
2023-02-09T05:29:14.241Z,58.94
2023-02-09T05:31:44.642Z,58.84
2023-02-09T05:34:15.046Z,58.79
2023-02-09T05:36:47.961Z,58.71
2023-02-09T05:39:18.318Z,58.44
2023-02-09T05:42:00.926Z,58.36
2023-02-09T05:44:31.318Z,58.12
2023-02-09T05:47:01.676Z,58.05
2023-02-09T05:49:32.075Z,57.84
2023-02-09T05:52:05.081Z,57.60
2023-02-09T05:54:35.692Z,57.66
2023-02-09T05:57:06.971Z,58.35
2023-02-09T05:59:37.111Z,58.74
2023-02-09T06:02:07.768Z,59.22
2023-02-09T06:04:38.362Z,59.53
2023-02-09T06:07:12.095Z,59.62
2023-02-09T06:09:42.549Z,59.93
2023-02-09T06:12:15.856Z,60.10
2023-02-09T06:14:46.168Z,60.89
2023-02-09T06:17:16.536Z,60.89
2023-02-09T06:19:47.199Z,61.29
2023-02-09T06:22:20.238Z,61.24
2023-02-09T06:24:50.573Z,61.48
2023-02-09T06:27:20.889Z,61.59
2023-02-09T06:29:51.277Z,62.44
2023-02-09T06:32:21.612Z,62.60
2023-02-09T06:34:51.957Z,61.93
2023-02-09T06:37:24.937Z,61.84
2023-02-09T06:39:55.316Z,62.78
2023-02-09T06:42:43.828Z,63.50
2023-02-09T06:45:14.797Z,63.25
2023-02-09T06:47:45.947Z,63.25
2023-02-09T06:50:18.569Z,62.98
2023-02-09T06:52:51.825Z,62.71
2023-02-09T06:55:22.505Z,62.45
2023-02-09T06:57:53.008Z,62.29
2023-02-09T07:00:24.953Z,62.03
2023-02-09T07:02:56.008Z,61.93
2023-02-09T07:05:26.447Z,61.41
2023-02-09T07:07:59.501Z,61.10
2023-02-09T07:10:30.095Z,61.07
2023-02-09T07:13:01.198Z,60.96
2023-02-09T07:15:31.737Z,60.76
2023-02-09T07:18:02.118Z,60.09
2023-02-09T07:20:32.492Z,59.32
2023-02-09T07:23:06.417Z,59.42
2023-02-09T07:25:38.118Z,59.29
2023-02-09T07:28:08.478Z,59.25
2023-02-09T07:30:41.214Z,58.39
2023-02-09T07:33:11.827Z,58.65
2023-02-09T07:35:43.659Z,57.41
2023-02-09T07:38:16.794Z,56.50
2023-02-09T07:40:47.994Z,55.79
2023-02-09T07:43:18.449Z,54.29
2023-02-09T07:45:48.804Z,52.81
2023-02-09T07:48:20.421Z,51.63
2023-02-09T07:50:54.095Z,50.59
2023-02-09T07:53:27.491Z,49.47
2023-02-09T07:55:57.999Z,48.78
2023-02-09T07:58:28.314Z,48.53
2023-02-09T08:00:59.928Z,47.98
2023-02-09T08:03:30.423Z,46.34
2023-02-09T08:06:05.901Z,45.94
2023-02-09T08:08:39.124Z,45.71
2023-02-09T08:11:09.471Z,44.60
2023-02-09T08:13:41.716Z,44.39
2023-02-09T08:16:16.482Z,44.81
2023-02-09T08:18:54.254Z,43.74
2023-02-09T08:21:25.689Z,42.99
2023-02-09T08:24:00.041Z,41.45
2023-02-09T08:26:30.614Z,39.75
2023-02-09T08:29:01.240Z,38.86
2023-02-09T08:31:31.893Z,38.72
2023-02-09T08:34:02.346Z,37.58
2023-02-09T08:36:37.658Z,36.59
2023-02-09T08:39:10.626Z,36.20
2023-02-09T08:41:41.036Z,34.82
2023-02-09T08:44:11.468Z,33.21
2023-02-09T08:46:41.953Z,31.88
2023-02-09T08:49:13.277Z,31.51
2023-02-09T08:51:43.670Z,30.67
2023-02-09T08:54:16.714Z,29.83
2023-02-09T08:56:47.194Z,29.52
2023-02-09T08:59:19.976Z,30.32
2023-02-09T09:01:50.548Z,31.72
2023-02-09T09:04:21.349Z,32.94
2023-02-09T09:06:51.924Z,33.39
2023-02-09T09:09:24.971Z,33.66
2023-02-09T09:11:55.265Z,32.09
2023-02-09T09:14:26.744Z,30.16
2023-02-09T09:16:59.989Z,29.40
2023-02-09T09:19:31.192Z,29.95
2023-02-09T09:22:03.562Z,30.65
2023-02-09T09:24:40.834Z,29.80
2023-02-09T09:27:13.610Z,30.38
2023-02-09T09:29:44.028Z,29.70
2023-02-09T09:32:16.327Z,28.59
2023-02-09T09:34:47.965Z,29.52
2023-02-09T09:37:18.236Z,28.98
2023-02-09T09:39:51.826Z,29.23
2023-02-09T09:42:31.403Z,29.86
2023-02-09T09:45:02.261Z,29.05
2023-02-09T09:47:40.753Z,29.75
2023-02-09T09:50:20.220Z,29.75
2023-02-09T09:52:55.221Z,29.65
2023-02-09T09:55:30.836Z,30.03
2023-02-09T09:58:05.732Z,30.00
2023-02-09T10:00:40.408Z,30.19
2023-02-09T10:03:18.438Z,30.77
2023-02-09T10:05:52.231Z,30.65
2023-02-09T10:08:31.610Z,30.03
2023-02-09T10:11:09.002Z,30.30
2023-02-09T10:13:46.846Z,30.33
2023-02-09T10:16:21.273Z,30.12
2023-02-09T10:18:54.349Z,30.38
2023-02-09T10:21:26.974Z,30.22
2023-02-09T10:24:15.089Z,30.83
2023-02-09T10:27:08.363Z,31.11
2023-02-09T10:29:39.831Z,30.38
2023-02-09T10:32:18.915Z,29.69
2023-02-09T10:34:52.704Z,29.39
2023-02-09T10:37:30.414Z,28.92
2023-02-09T10:40:12.586Z,28.95
2023-02-09T10:42:58.309Z,28.69
2023-02-09T10:45:35.182Z,28.41
2023-02-09T10:48:20.210Z,28.02
2023-02-09T10:50:56.922Z,28.10
2023-02-09T10:53:31.133Z,28.11
2023-02-09T10:56:08.870Z,27.43
2023-02-09T10:58:41.891Z,27.07
2023-02-09T11:01:22.705Z,26.42
2023-02-09T11:04:05.947Z,26.21
2023-02-09T11:06:45.778Z,26.01
2023-02-09T11:09:20.521Z,25.58
2023-02-09T11:11:50.968Z,23.90
2023-02-09T11:14:24.421Z,24.14
2023-02-09T11:17:18.041Z,22.67
2023-02-09T11:20:11.686Z,22.21
2023-02-09T11:23:32.633Z,21.58
2023-02-09T11:26:07.780Z,21.24
2023-02-09T11:28:50.265Z,21.46
2023-02-09T11:31:57.456Z,20.40
2023-02-09T11:35:04.687Z,20.43
2023-02-09T11:37:54.990Z,20.12
2023-02-09T11:40:35.364Z,19.17
2023-02-09T11:43:16.605Z,18.67
2023-02-09T11:45:49.920Z,18.13
2023-02-09T11:48:29.110Z,17.45
2023-02-09T11:51:08.462Z,17.07
2023-02-09T11:53:48.321Z,16.50
2023-02-09T11:56:23.578Z,16.33
2023-02-09T11:59:01.257Z,16.80
2023-02-09T12:01:43.236Z,15.90
2023-02-09T12:04:23.782Z,15.96
2023-02-09T12:06:57.674Z,15.73
2023-02-09T12:09:50.124Z,15.69
2023-02-09T12:12:30.731Z,15.71
2023-02-09T12:15:14.700Z,15.58
2023-02-09T12:17:51.425Z,15.39
2023-02-09T12:20:36.328Z,15.38
2023-02-09T12:23:10.769Z,16.10
2023-02-09T12:25:54.642Z,15.94
2023-02-09T12:28:50.076Z,16.20
2023-02-09T12:31:28.121Z,15.83
2023-02-09T12:34:24.422Z,15.68
2023-02-09T12:37:28.457Z,15.28
2023-02-09T12:40:26.726Z,15.28
2023-02-09T12:43:32.652Z,14.46
2023-02-09T12:46:27.446Z,14.88
2023-02-09T12:49:21.000Z,13.90
2023-02-09T12:52:09.519Z,13.88
2023-02-09T12:54:51.560Z,13.68
2023-02-09T12:57:55.124Z,13.42
2023-02-09T13:00:59.738Z,13.34
2023-02-09T13:03:33.061Z,12.93
2023-02-09T13:06:05.182Z,13.38
2023-02-09T13:08:42.054Z,13.23
2023-02-09T13:11:29.779Z,12.64
2023-02-09T13:14:07.578Z,12.58
2023-02-09T13:17:28.296Z,12.73
2023-02-09T13:21:00.425Z,12.57
2023-02-09T13:23:37.322Z,13.07
2023-02-09T13:26:24.946Z,13.65
2023-02-09T13:29:20.529Z,15.06
2023-02-09T13:32:05.400Z,15.10
2023-02-09T13:34:41.450Z,17.12
2023-02-09T13:37:26.954Z,18.64
2023-02-09T13:40:01.129Z,19.81
2023-02-09T13:42:39.183Z,21.30
2023-02-09T13:45:21.359Z,21.74
2023-02-09T13:47:51.772Z,21.86
2023-02-09T13:50:24.843Z,21.80
2023-02-09T13:52:55.604Z,21.45
2023-02-09T13:55:29.214Z,21.78
2023-02-09T13:58:07.258Z,21.48
2023-02-09T14:00:47.419Z,21.43
2023-02-09T14:03:21.616Z,21.48
2023-02-09T14:05:57.144Z,21.40
2023-02-09T14:08:30.534Z,20.92
2023-02-09T14:11:09.732Z,20.58
2023-02-09T14:13:47.975Z,20.58
2023-02-09T14:16:20.706Z,20.73
2023-02-09T14:18:54.985Z,21.35
2023-02-09T14:21:37.387Z,21.48
2023-02-09T14:24:27.274Z,21.28
2023-02-09T14:27:05.605Z,21.16
2023-02-09T14:29:39.920Z,21.75
2023-02-09T14:32:32.907Z,21.89
2023-02-09T14:35:20.230Z,21.87
2023-02-09T14:37:53.037Z,21.08
2023-02-09T14:40:34.349Z,22.06
2023-02-09T14:43:07.299Z,22.08
2023-02-09T14:45:48.039Z,22.63
2023-02-09T14:48:20.480Z,22.96
2023-02-09T14:50:57.617Z,23.37
2023-02-09T14:53:31.975Z,23.41
2023-02-09T14:56:02.478Z,23.34
2023-02-09T14:58:35.255Z,23.64
2023-02-09T15:01:09.232Z,24.15
2023-02-09T15:03:39.793Z,24.18
2023-02-09T15:06:10.602Z,24.62
2023-02-09T15:08:41.820Z,24.99
2023-02-09T15:11:32.520Z,25.57
2023-02-09T15:14:06.637Z,26.08
2023-02-09T15:16:39.673Z,26.64
2023-02-09T15:19:17.084Z,27.38
2023-02-09T15:22:05.329Z,28.32
2023-02-09T15:24:37.308Z,28.86
2023-02-09T15:27:07.944Z,29.77
2023-02-09T15:29:38.291Z,30.38
2023-02-09T15:32:18.561Z,31.24
2023-02-09T15:34:49.447Z,31.18
2023-02-09T15:37:25.516Z,31.82
2023-02-09T15:40:00.017Z,32.71
2023-02-09T15:42:42.976Z,32.72
2023-02-09T15:45:35.019Z,33.05
2023-02-09T15:48:08.696Z,33.12
2023-02-09T15:50:41.985Z,33.85
2023-02-09T15:53:18.776Z,34.07
2023-02-09T15:55:50.262Z,34.69
2023-02-09T15:58:22.590Z,35.03
2023-02-09T16:00:52.969Z,35.25
2023-02-09T16:03:26.015Z,35.28
2023-02-09T16:06:03.806Z,35.69
2023-02-09T16:08:37.608Z,35.86
2023-02-09T16:11:09.642Z,35.89
2023-02-09T16:13:40.096Z,35.98
2023-02-09T16:16:17.091Z,36.09
2023-02-09T16:18:50.546Z,36.31
2023-02-09T16:21:27.302Z,36.95
2023-02-09T16:24:00.465Z,37.19
2023-02-09T16:26:32.405Z,37.36
2023-02-09T16:29:02.966Z,37.33
2023-02-09T16:31:34.388Z,37.82
2023-02-09T16:34:07.665Z,37.78
2023-02-09T16:36:38.031Z,38.38
2023-02-09T16:39:17.676Z,38.58
2023-02-09T16:41:51.601Z,38.73
2023-02-09T16:44:25.554Z,38.94
2023-02-09T16:46:58.442Z,39.05
2023-02-09T16:49:40.154Z,39.48
2023-02-09T16:52:19.418Z,39.64
2023-02-09T16:54:53.081Z,40.19
2023-02-09T16:57:25.978Z,40.67
2023-02-09T16:59:57.443Z,42.41
2023-02-09T17:02:40.861Z,42.47
2023-02-09T17:05:21.802Z,41.05
2023-02-09T17:07:58.156Z,41.25
2023-02-09T17:10:32.377Z,40.94
2023-02-09T17:13:04.780Z,40.92
2023-02-09T17:15:42.962Z,41.26
2023-02-09T17:18:21.965Z,41.39
2023-02-09T17:20:59.334Z,41.78
2023-02-09T17:23:31.744Z,41.93
2023-02-09T17:26:02.503Z,41.79
2023-02-09T17:28:33.193Z,41.97
2023-02-09T17:31:06.923Z,41.70
2023-02-09T17:33:38.693Z,41.68
2023-02-09T17:36:30.859Z,42.39
2023-02-09T17:39:03.712Z,43.55
2023-02-09T17:41:38.413Z,42.44
2023-02-09T17:44:34.837Z,42.55
2023-02-09T17:47:09.790Z,43.28
2023-02-09T17:49:40.085Z,43.04
2023-02-09T17:52:18.787Z,43.13
2023-02-09T17:54:51.092Z,42.79
2023-02-09T17:57:21.646Z,42.76
2023-02-09T17:59:52.042Z,42.79
2023-02-09T18:02:22.754Z,42.87
2023-02-09T18:04:53.112Z,43.13
2023-02-09T18:07:26.136Z,43.57
2023-02-09T18:09:57.129Z,43.83
2023-02-09T18:12:29.384Z,43.93
2023-02-09T18:14:59.787Z,43.98
2023-02-09T18:17:30.346Z,44.15
2023-02-09T18:20:00.754Z,44.44
2023-02-09T18:22:33.749Z,44.82
2023-02-09T18:25:04.048Z,45.04
2023-02-09T18:27:34.410Z,45.23
2023-02-09T18:30:04.771Z,45.29
2023-02-09T18:32:35.100Z,45.52
2023-02-09T18:35:05.598Z,45.50
2023-02-09T18:37:38.792Z,45.66
2023-02-09T18:40:09.860Z,46.01
2023-02-09T18:42:40.213Z,46.52
2023-02-09T18:45:13.069Z,46.75
2023-02-09T18:47:43.476Z,47.02
2023-02-09T18:50:18.075Z,47.08
2023-02-09T18:52:54.196Z,46.77
2023-02-09T18:55:28.137Z,46.69
2023-02-09T18:57:59.960Z,46.95
2023-02-09T19:00:31.356Z,46.98
2023-02-09T19:03:01.897Z,47.12
2023-02-09T19:05:35.243Z,47.44
2023-02-09T19:08:10.195Z,47.24
2023-02-09T19:10:40.734Z,47.25
2023-02-09T19:13:11.183Z,47.24
2023-02-09T19:15:42.408Z,47.30
2023-02-09T19:18:12.869Z,47.26
2023-02-09T19:20:43.134Z,47.24
2023-02-09T19:23:16.100Z,47.53
2023-02-09T19:25:46.691Z,47.54
2023-02-09T19:28:17.692Z,47.91
2023-02-09T19:30:48.083Z,47.59
2023-02-09T19:33:18.499Z,47.42
2023-02-09T19:35:48.962Z,47.58
2023-02-09T19:38:22.007Z,47.40
2023-02-09T19:41:05.112Z,47.44
2023-02-09T19:43:39.946Z,47.29
2023-02-09T19:46:11.344Z,47.52
2023-02-09T19:48:42.420Z,47.62
2023-02-09T19:51:12.797Z,47.79
2023-02-09T19:53:45.814Z,47.53
2023-02-09T19:56:19.566Z,47.97
2023-02-09T19:58:50.242Z,47.70
2023-02-09T20:01:21.938Z,47.76
2023-02-09T20:03:52.490Z,47.69
2023-02-09T20:06:22.998Z,47.48
2023-02-09T20:08:55.923Z,47.90
2023-02-09T20:11:26.300Z,47.68
2023-02-09T20:13:57.629Z,47.89
2023-02-09T20:16:30.327Z,47.65
2023-02-09T20:19:00.703Z,47.68
2023-02-09T20:21:31.001Z,47.80
2023-02-09T20:24:09.488Z,47.53
2023-02-09T20:26:39.870Z,47.77
2023-02-09T20:29:11.316Z,47.84
2023-02-09T20:31:44.756Z,48.15
2023-02-09T20:34:17.956Z,48.24
2023-02-09T20:36:50.694Z,48.13
2023-02-09T20:39:24.218Z,48.22
2023-02-09T20:42:11.697Z,48.30
2023-02-09T20:44:54.624Z,48.49
2023-02-09T20:47:26.157Z,48.81
2023-02-09T20:50:00.255Z,48.86
2023-02-09T20:52:31.507Z,49.23
2023-02-09T20:55:04.600Z,49.24
2023-02-09T20:57:35.042Z,49.62
2023-02-09T21:00:08.920Z,49.50
2023-02-09T21:02:41.182Z,49.40
2023-02-09T21:05:12.326Z,49.52
2023-02-09T21:07:42.829Z,49.81
2023-02-09T21:10:16.223Z,50.37
2023-02-09T21:12:47.137Z,50.41
2023-02-09T21:15:18.060Z,50.69
2023-02-09T21:17:49.095Z,51.00
2023-02-09T21:20:20.587Z,51.26
2023-02-09T21:22:51.764Z,51.88
2023-02-09T21:25:25.337Z,52.25
2023-02-09T21:27:55.875Z,52.22
2023-02-09T21:30:26.308Z,52.29
2023-02-09T21:33:00.500Z,52.62
2023-02-09T21:35:31.115Z,52.80
2023-02-09T21:38:01.569Z,52.98
2023-02-09T21:40:34.603Z,53.11
2023-02-09T21:43:04.926Z,52.88
2023-02-09T21:45:35.428Z,52.45
2023-02-09T21:48:05.917Z,52.40
2023-02-09T21:50:36.469Z,52.50
2023-02-09T21:53:06.934Z,52.63
2023-02-09T21:55:39.871Z,52.73
2023-02-09T21:58:10.136Z,53.33
2023-02-09T22:00:40.507Z,53.41
2023-02-09T22:03:10.763Z,53.37
2023-02-09T22:05:41.143Z,53.76
2023-02-09T22:08:11.462Z,54.12
2023-02-09T22:10:44.593Z,54.33
2023-02-09T22:13:15.007Z,54.42
2023-02-09T22:15:45.950Z,54.76
2023-02-09T22:18:17.111Z,55.26
2023-02-09T22:20:51.363Z,55.11
2023-02-09T22:23:22.635Z,54.84
2023-02-09T22:26:01.335Z,54.72
2023-02-09T22:28:33.863Z,54.86
2023-02-09T22:31:10.158Z,55.12
2023-02-09T22:33:40.545Z,55.36
2023-02-09T22:36:14.893Z,55.47
2023-02-09T22:38:46.746Z,55.67
2023-02-09T22:41:25.763Z,56.09
2023-02-09T22:43:59.141Z,56.17
2023-02-09T22:46:33.060Z,56.16
2023-02-09T22:49:05.773Z,56.38
2023-02-09T22:51:38.348Z,56.47
2023-02-09T22:54:09.371Z,56.25
2023-02-09T22:56:42.405Z,56.40
2023-02-09T22:59:16.350Z,56.37
2023-02-09T23:01:47.617Z,56.24
2023-02-09T23:04:17.844Z,56.25
2023-02-09T23:06:48.870Z,56.22
2023-02-09T23:09:19.244Z,56.16
2023-02-09T23:11:52.164Z,56.27
2023-02-09T23:14:22.577Z,56.40
2023-02-09T23:16:53.637Z,56.47
2023-02-09T23:19:24.592Z,56.12
2023-02-09T23:21:55.711Z,56.58
2023-02-09T23:24:27.020Z,57.01
2023-02-09T23:27:00.040Z,56.67
2023-02-09T23:29:30.829Z,56.32
2023-02-09T23:32:01.195Z,56.50
2023-02-09T23:34:33.035Z,56.22
2023-02-09T23:37:13.308Z,56.28
2023-02-09T23:39:49.597Z,56.04
2023-02-09T23:42:22.564Z,56.18
2023-02-09T23:44:52.975Z,56.46
2023-02-09T23:47:23.474Z,56.44
2023-02-09T23:49:59.790Z,56.82
2023-02-09T23:52:30.378Z,56.89
2023-02-09T23:55:02.719Z,56.92
2023-02-09T23:57:35.742Z,57.13
